sensor_id;sensor_type;location;lat;lon;timestamp;P1;durP1;ratioP1;P2;durP2;ratioP2
60492;SDS011;46341;51.290;-2.474;2022-10-31T00:00:51;22.02;;;3.58;;
60492;SDS011;46341;51.290;-2.474;2022-10-31T00:03:18;23.92;;;3.45;;
60492;SDS011;46341;51.290;-2.474;2022-10-31T00:05:48;19.27;;;3.03;;
60492;SDS011;46341;51.290;-2.474;2022-10-31T00:08:15;14.63;;;2.92;;
60492;SDS011;46341;51.290;-2.474;2022-10-31T00:10:42;16.48;;;2.42;;
60492;SDS011;46341;51.290;-2.474;2022-10-31T00:13:09;18.17;;;2.87;;
60492;SDS011;46341;51.290;-2.474;2022-10-31T00:15:36;17.00;;;2.78;;
60492;SDS011;46341;51.290;-2.474;2022-10-31T00:18:03;15.30;;;3.00;;
60492;SDS011;46341;51.290;-2.474;2022-10-31T00:20:30;12.68;;;2.70;;
60492;SDS011;46341;51.290;-2.474;2022-10-31T00:22:59;13.37;;;2.23;;
60492;SDS011;46341;51.290;-2.474;2022-10-31T00:25:27;11.88;;;2.20;;
60492;SDS011;46341;51.290;-2.474;2022-10-31T00:27:54;16.73;;;2.42;;
60492;SDS011;46341;51.290;-2.474;2022-10-31T00:30:20;15.30;;;2.55;;
60492;SDS011;46341;51.290;-2.474;2022-10-31T00:32:47;18.50;;;2.83;;
60492;SDS011;46341;51.290;-2.474;2022-10-31T00:35:13;14.07;;;2.60;;
60492;SDS011;46341;51.290;-2.474;2022-10-31T00:37:39;18.55;;;2.67;;
60492;SDS011;46341;51.290;-2.474;2022-10-31T00:40:06;17.33;;;2.40;;
60492;SDS011;46341;51.290;-2.474;2022-10-31T00:42:32;17.05;;;2.28;;
60492;SDS011;46341;51.290;-2.474;2022-10-31T00:44:59;14.95;;;2.55;;
60492;SDS011;46341;51.290;-2.474;2022-10-31T00:47:25;16.52;;;2.35;;
60492;SDS011;46341;51.290;-2.474;2022-10-31T00:49:51;18.10;;;2.85;;
60492;SDS011;46341;51.290;-2.474;2022-10-31T00:52:18;18.13;;;3.03;;
60492;SDS011;46341;51.290;-2.474;2022-10-31T00:54:44;13.82;;;2.10;;
60492;SDS011;46341;51.290;-2.474;2022-10-31T00:57:10;16.05;;;2.50;;
60492;SDS011;46341;51.290;-2.474;2022-10-31T00:59:37;14.95;;;2.17;;
60492;SDS011;46341;51.290;-2.474;2022-10-31T01:02:03;21.10;;;3.13;;
60492;SDS011;46341;51.290;-2.474;2022-10-31T01:04:30;13.55;;;2.30;;
60492;SDS011;46341;51.290;-2.474;2022-10-31T01:06:56;16.98;;;3.10;;
60492;SDS011;46341;51.290;-2.474;2022-10-31T01:09:22;16.20;;;2.60;;
60492;SDS011;46341;51.290;-2.474;2022-10-31T01:11:49;17.98;;;2.72;;
60492;SDS011;46341;51.290;-2.474;2022-10-31T01:14:15;16.08;;;2.20;;
60492;SDS011;46341;51.290;-2.474;2022-10-31T01:16:41;20.65;;;3.10;;
60492;SDS011;46341;51.290;-2.474;2022-10-31T01:19:08;16.70;;;2.80;;
60492;SDS011;46341;51.290;-2.474;2022-10-31T01:21:34;12.48;;;2.35;;
60492;SDS011;46341;51.290;-2.474;2022-10-31T01:24:01;13.13;;;2.15;;
60492;SDS011;46341;51.290;-2.474;2022-10-31T01:26:28;12.90;;;2.88;;
60492;SDS011;46341;51.290;-2.474;2022-10-31T01:28:57;17.70;;;2.38;;
60492;SDS011;46341;51.290;-2.474;2022-10-31T01:31:25;16.23;;;2.58;;
60492;SDS011;46341;51.290;-2.474;2022-10-31T01:33:51;14.80;;;2.08;;
60492;SDS011;46341;51.290;-2.474;2022-10-31T01:36:22;17.20;;;2.45;;
60492;SDS011;46341;51.290;-2.474;2022-10-31T01:38:49;15.77;;;2.78;;
60492;SDS011;46341;51.290;-2.474;2022-10-31T01:41:23;13.90;;;2.50;;
60492;SDS011;46341;51.290;-2.474;2022-10-31T01:43:52;14.68;;;2.25;;
60492;SDS011;46341;51.290;-2.474;2022-10-31T01:46:21;15.32;;;2.10;;
60492;SDS011;46341;51.290;-2.474;2022-10-31T01:48:48;16.92;;;2.50;;
60492;SDS011;46341;51.290;-2.474;2022-10-31T01:51:15;16.05;;;2.47;;
60492;SDS011;46341;51.290;-2.474;2022-10-31T01:53:43;15.45;;;2.55;;
60492;SDS011;46341;51.290;-2.474;2022-10-31T01:56:10;18.60;;;3.03;;
60492;SDS011;46341;51.290;-2.474;2022-10-31T01:58:37;21.33;;;2.63;;
60492;SDS011;46341;51.290;-2.474;2022-10-31T02:01:04;14.85;;;2.42;;
60492;SDS011;46341;51.290;-2.474;2022-10-31T02:03:33;13.60;;;2.17;;
60492;SDS011;46341;51.290;-2.474;2022-10-31T02:05:59;14.10;;;2.33;;
60492;SDS011;46341;51.290;-2.474;2022-10-31T02:08:27;17.65;;;2.97;;
60492;SDS011;46341;51.290;-2.474;2022-10-31T02:10:54;21.90;;;2.67;;
60492;SDS011;46341;51.290;-2.474;2022-10-31T02:13:20;13.93;;;2.60;;
60492;SDS011;46341;51.290;-2.474;2022-10-31T02:15:47;13.75;;;2.78;;
60492;SDS011;46341;51.290;-2.474;2022-10-31T02:18:15;18.42;;;2.95;;
60492;SDS011;46341;51.290;-2.474;2022-10-31T02:30:37;14.35;;;2.58;;
60492;SDS011;46341;51.290;-2.474;2022-10-31T02:33:11;13.60;;;2.05;;
60492;SDS011;46341;51.290;-2.474;2022-10-31T02:38:38;16.98;;;2.88;;
60492;SDS011;46341;51.290;-2.474;2022-10-31T02:48:28;14.52;;;2.42;;
60492;SDS011;46341;51.290;-2.474;2022-10-31T02:50:56;16.15;;;2.72;;
60492;SDS011;46341;51.290;-2.474;2022-10-31T02:53:23;15.73;;;2.42;;
60492;SDS011;46341;51.290;-2.474;2022-10-31T02:56:00;18.08;;;3.15;;
60492;SDS011;46341;51.290;-2.474;2022-10-31T02:58:30;17.50;;;2.50;;
60492;SDS011;46341;51.290;-2.474;2022-10-31T03:03:33;14.20;;;2.40;;
60492;SDS011;46341;51.290;-2.474;2022-10-31T03:06:03;19.02;;;3.03;;
60492;SDS011;46341;51.290;-2.474;2022-10-31T03:08:46;16.52;;;2.67;;
60492;SDS011;46341;51.290;-2.474;2022-10-31T03:11:16;23.25;;;3.25;;
60492;SDS011;46341;51.290;-2.474;2022-10-31T03:13:48;15.98;;;3.00;;
60492;SDS011;46341;51.290;-2.474;2022-10-31T03:16:26;15.77;;;2.90;;
60492;SDS011;46341;51.290;-2.474;2022-10-31T03:18:57;11.15;;;2.13;;
60492;SDS011;46341;51.290;-2.474;2022-10-31T03:21:26;14.68;;;2.38;;
60492;SDS011;46341;51.290;-2.474;2022-10-31T03:23:54;12.50;;;2.20;;
60492;SDS011;46341;51.290;-2.474;2022-10-31T03:26:21;16.92;;;2.88;;
60492;SDS011;46341;51.290;-2.474;2022-10-31T03:28:51;16.50;;;2.70;;
60492;SDS011;46341;51.290;-2.474;2022-10-31T03:31:19;18.02;;;2.88;;
60492;SDS011;46341;51.290;-2.474;2022-10-31T03:33:49;12.10;;;2.13;;
60492;SDS011;46341;51.290;-2.474;2022-10-31T03:38:43;23.65;;;3.08;;
60492;SDS011;46341;51.290;-2.474;2022-10-31T03:41:13;19.55;;;2.67;;
60492;SDS011;46341;51.290;-2.474;2022-10-31T03:43:42;14.75;;;2.65;;
60492;SDS011;46341;51.290;-2.474;2022-10-31T03:46:09;14.75;;;2.17;;
60492;SDS011;46341;51.290;-2.474;2022-10-31T03:48:35;12.70;;;2.22;;
60492;SDS011;46341;51.290;-2.474;2022-10-31T03:51:05;16.35;;;2.92;;
60492;SDS011;46341;51.290;-2.474;2022-10-31T03:53:34;20.25;;;3.03;;
60492;SDS011;46341;51.290;-2.474;2022-10-31T03:56:03;14.90;;;3.22;;
60492;SDS011;46341;51.290;-2.474;2022-10-31T03:58:33;17.08;;;2.42;;
60492;SDS011;46341;51.290;-2.474;2022-10-31T04:01:00;21.23;;;3.25;;
60492;SDS011;46341;51.290;-2.474;2022-10-31T04:03:31;15.77;;;3.08;;
60492;SDS011;46341;51.290;-2.474;2022-10-31T04:05:59;15.13;;;2.42;;
60492;SDS011;46341;51.290;-2.474;2022-10-31T04:08:29;15.63;;;2.65;;
60492;SDS011;46341;51.290;-2.474;2022-10-31T04:10:56;17.25;;;2.95;;
60492;SDS011;46341;51.290;-2.474;2022-10-31T04:13:25;13.30;;;2.80;;
60492;SDS011;46341;51.290;-2.474;2022-10-31T04:15:53;12.57;;;2.00;;
60492;SDS011;46341;51.290;-2.474;2022-10-31T04:18:21;15.02;;;2.25;;
60492;SDS011;46341;51.290;-2.474;2022-10-31T04:20:48;15.40;;;2.28;;
60492;SDS011;46341;51.290;-2.474;2022-10-31T04:23:20;12.40;;;2.40;;
60492;SDS011;46341;51.290;-2.474;2022-10-31T04:25:46;16.75;;;2.40;;
60492;SDS011;46341;51.290;-2.474;2022-10-31T04:28:13;12.48;;;2.78;;
60492;SDS011;46341;51.290;-2.474;2022-10-31T04:30:39;20.25;;;2.75;;
60492;SDS011;46341;51.290;-2.474;2022-10-31T04:33:06;13.73;;;2.58;;
60492;SDS011;46341;51.290;-2.474;2022-10-31T04:35:32;16.60;;;2.47;;
60492;SDS011;46341;51.290;-2.474;2022-10-31T04:37:58;11.63;;;2.40;;
60492;SDS011;46341;51.290;-2.474;2022-10-31T04:40:25;13.57;;;2.15;;
60492;SDS011;46341;51.290;-2.474;2022-10-31T04:42:51;14.35;;;2.70;;
60492;SDS011;46341;51.290;-2.474;2022-10-31T04:45:17;15.80;;;2.30;;
60492;SDS011;46341;51.290;-2.474;2022-10-31T04:47:46;13.52;;;2.38;;
60492;SDS011;46341;51.290;-2.474;2022-10-31T04:50:13;17.60;;;2.67;;
60492;SDS011;46341;51.290;-2.474;2022-10-31T04:52:40;14.43;;;2.42;;
60492;SDS011;46341;51.290;-2.474;2022-10-31T04:55:06;18.50;;;3.03;;
60492;SDS011;46341;51.290;-2.474;2022-10-31T04:57:39;13.88;;;2.45;;
60492;SDS011;46341;51.290;-2.474;2022-10-31T05:00:06;17.13;;;2.53;;
60492;SDS011;46341;51.290;-2.474;2022-10-31T05:02:32;10.40;;;2.30;;
60492;SDS011;46341;51.290;-2.474;2022-10-31T05:04:58;18.63;;;2.40;;
60492;SDS011;46341;51.290;-2.474;2022-10-31T05:07:25;12.05;;;2.30;;
60492;SDS011;46341;51.290;-2.474;2022-10-31T05:09:51;15.55;;;2.55;;
60492;SDS011;46341;51.290;-2.474;2022-10-31T05:12:17;14.15;;;2.67;;
60492;SDS011;46341;51.290;-2.474;2022-10-31T05:14:44;12.20;;;2.85;;
60492;SDS011;46341;51.290;-2.474;2022-10-31T05:17:13;13.20;;;2.30;;
60492;SDS011;46341;51.290;-2.474;2022-10-31T05:19:40;12.07;;;2.10;;
60492;SDS011;46341;51.290;-2.474;2022-10-31T05:22:06;13.65;;;3.03;;
60492;SDS011;46341;51.290;-2.474;2022-10-31T05:24:32;11.48;;;2.45;;
60492;SDS011;46341;51.290;-2.474;2022-10-31T05:26:59;22.20;;;3.28;;
60492;SDS011;46341;51.290;-2.474;2022-10-31T05:29:25;11.48;;;2.45;;
60492;SDS011;46341;51.290;-2.474;2022-10-31T05:31:52;15.73;;;2.58;;
60492;SDS011;46341;51.290;-2.474;2022-10-31T05:34:18;17.50;;;2.20;;
60492;SDS011;46341;51.290;-2.474;2022-10-31T05:36:44;8.85;;;2.25;;
60492;SDS011;46341;51.290;-2.474;2022-10-31T05:39:11;14.48;;;2.47;;
60492;SDS011;46341;51.290;-2.474;2022-10-31T05:41:37;13.60;;;2.80;;
60492;SDS011;46341;51.290;-2.474;2022-10-31T05:44:03;15.48;;;2.70;;
60492;SDS011;46341;51.290;-2.474;2022-10-31T05:46:30;20.67;;;3.17;;
60492;SDS011;46341;51.290;-2.474;2022-10-31T05:48:56;16.25;;;2.45;;
60492;SDS011;46341;51.290;-2.474;2022-10-31T05:51:27;18.23;;;2.72;;
60492;SDS011;46341;51.290;-2.474;2022-10-31T05:53:54;13.65;;;2.60;;
60492;SDS011;46341;51.290;-2.474;2022-10-31T05:56:20;12.82;;;2.33;;
60492;SDS011;46341;51.290;-2.474;2022-10-31T05:58:46;12.18;;;2.70;;
60492;SDS011;46341;51.290;-2.474;2022-10-31T06:01:13;14.93;;;3.30;;
60492;SDS011;46341;51.290;-2.474;2022-10-31T06:03:39;12.38;;;2.33;;
60492;SDS011;46341;51.290;-2.474;2022-10-31T06:06:05;12.05;;;2.20;;
60492;SDS011;46341;51.290;-2.474;2022-10-31T06:08:32;10.45;;;2.28;;
60492;SDS011;46341;51.290;-2.474;2022-10-31T06:10:58;11.57;;;2.60;;
60492;SDS011;46341;51.290;-2.474;2022-10-31T06:13:25;16.50;;;2.45;;
60492;SDS011;46341;51.290;-2.474;2022-10-31T06:15:51;17.45;;;2.90;;
60492;SDS011;46341;51.290;-2.474;2022-10-31T06:18:17;14.82;;;2.63;;
60492;SDS011;46341;51.290;-2.474;2022-10-31T06:20:44;15.63;;;2.50;;
60492;SDS011;46341;51.290;-2.474;2022-10-31T06:23:10;15.98;;;2.58;;
60492;SDS011;46341;51.290;-2.474;2022-10-31T06:25:37;12.07;;;2.58;;
60492;SDS011;46341;51.290;-2.474;2022-10-31T06:28:03;15.38;;;2.70;;
60492;SDS011;46341;51.290;-2.474;2022-10-31T06:30:30;12.77;;;2.97;;
60492;SDS011;46341;51.290;-2.474;2022-10-31T06:33:03;12.50;;;3.30;;
60492;SDS011;46341;51.290;-2.474;2022-10-31T06:35:30;17.20;;;3.38;;
60492;SDS011;46341;51.290;-2.474;2022-10-31T06:37:56;11.77;;;2.63;;
60492;SDS011;46341;51.290;-2.474;2022-10-31T06:40:23;15.15;;;3.25;;
60492;SDS011;46341;51.290;-2.474;2022-10-31T06:42:56;18.55;;;3.10;;
60492;SDS011;46341;51.290;-2.474;2022-10-31T06:45:23;13.98;;;2.80;;
60492;SDS011;46341;51.290;-2.474;2022-10-31T06:47:53;18.70;;;3.15;;
60492;SDS011;46341;51.290;-2.474;2022-10-31T06:50:39;16.38;;;3.25;;
60492;SDS011;46341;51.290;-2.474;2022-10-31T06:53:05;18.23;;;2.65;;
60492;SDS011;46341;51.290;-2.474;2022-10-31T06:55:32;13.02;;;2.88;;
60492;SDS011;46341;51.290;-2.474;2022-10-31T06:57:59;14.70;;;3.00;;
60492;SDS011;46341;51.290;-2.474;2022-10-31T07:00:29;13.73;;;2.33;;
60492;SDS011;46341;51.290;-2.474;2022-10-31T07:02:59;19.02;;;3.25;;
60492;SDS011;46341;51.290;-2.474;2022-10-31T07:05:26;10.55;;;2.42;;
60492;SDS011;46341;51.290;-2.474;2022-10-31T07:07:57;17.45;;;2.83;;
60492;SDS011;46341;51.290;-2.474;2022-10-31T07:10:25;16.48;;;2.45;;
60492;SDS011;46341;51.290;-2.474;2022-10-31T07:12:55;14.85;;;3.05;;
60492;SDS011;46341;51.290;-2.474;2022-10-31T07:15:23;16.70;;;2.92;;
60492;SDS011;46341;51.290;-2.474;2022-10-31T07:17:49;16.88;;;3.45;;
60492;SDS011;46341;51.290;-2.474;2022-10-31T07:20:15;15.50;;;2.75;;
60492;SDS011;46341;51.290;-2.474;2022-10-31T07:22:42;19.85;;;3.05;;
60492;SDS011;46341;51.290;-2.474;2022-10-31T07:25:14;14.63;;;2.78;;
60492;SDS011;46341;51.290;-2.474;2022-10-31T07:27:42;13.48;;;2.78;;
60492;SDS011;46341;51.290;-2.474;2022-10-31T07:30:09;19.63;;;3.00;;
60492;SDS011;46341;51.290;-2.474;2022-10-31T07:32:40;13.23;;;2.53;;
60492;SDS011;46341;51.290;-2.474;2022-10-31T07:35:07;10.52;;;2.53;;
60492;SDS011;46341;51.290;-2.474;2022-10-31T07:37:34;21.25;;;3.00;;
60492;SDS011;46341;51.290;-2.474;2022-10-31T07:40:01;16.38;;;2.53;;
60492;SDS011;46341;51.290;-2.474;2022-10-31T07:42:27;12.88;;;2.35;;
60492;SDS011;46341;51.290;-2.474;2022-10-31T07:44:53;14.70;;;2.67;;
60492;SDS011;46341;51.290;-2.474;2022-10-31T07:47:22;14.57;;;2.35;;
60492;SDS011;46341;51.290;-2.474;2022-10-31T07:49:49;13.30;;;2.92;;
60492;SDS011;46341;51.290;-2.474;2022-10-31T07:52:15;19.83;;;3.50;;
60492;SDS011;46341;51.290;-2.474;2022-10-31T07:54:42;19.65;;;2.70;;
60492;SDS011;46341;51.290;-2.474;2022-10-31T07:57:08;15.20;;;2.80;;
60492;SDS011;46341;51.290;-2.474;2022-10-31T07:59:34;14.25;;;3.45;;
60492;SDS011;46341;51.290;-2.474;2022-10-31T08:02:01;14.27;;;2.58;;
60492;SDS011;46341;51.290;-2.474;2022-10-31T08:04:27;13.35;;;2.30;;
60492;SDS011;46341;51.290;-2.474;2022-10-31T08:06:53;13.23;;;2.30;;
60492;SDS011;46341;51.290;-2.474;2022-10-31T08:09:20;13.82;;;2.72;;
60492;SDS011;46341;51.290;-2.474;2022-10-31T08:11:46;19.65;;;2.28;;
60492;SDS011;46341;51.290;-2.474;2022-10-31T08:14:12;11.88;;;2.22;;
60492;SDS011;46341;51.290;-2.474;2022-10-31T08:16:39;14.32;;;2.10;;
60492;SDS011;46341;51.290;-2.474;2022-10-31T08:19:05;11.30;;;2.47;;
60492;SDS011;46341;51.290;-2.474;2022-10-31T08:21:31;10.48;;;2.28;;
60492;SDS011;46341;51.290;-2.474;2022-10-31T08:23:58;14.40;;;2.30;;
60492;SDS011;46341;51.290;-2.474;2022-10-31T08:26:25;10.45;;;2.20;;
60492;SDS011;46341;51.290;-2.474;2022-10-31T08:28:51;9.93;;;2.42;;
60492;SDS011;46341;51.290;-2.474;2022-10-31T08:31:20;14.57;;;2.33;;
60492;SDS011;46341;51.290;-2.474;2022-10-31T08:33:47;9.82;;;2.28;;
60492;SDS011;46341;51.290;-2.474;2022-10-31T08:36:13;16.65;;;2.60;;
60492;SDS011;46341;51.290;-2.474;2022-10-31T08:38:40;10.57;;;2.03;;
60492;SDS011;46341;51.290;-2.474;2022-10-31T08:41:06;10.20;;;1.75;;
60492;SDS011;46341;51.290;-2.474;2022-10-31T08:43:32;16.13;;;2.50;;
60492;SDS011;46341;51.290;-2.474;2022-10-31T08:45:59;11.10;;;2.00;;
60492;SDS011;46341;51.290;-2.474;2022-10-31T08:48:25;12.55;;;2.10;;
60492;SDS011;46341;51.290;-2.474;2022-10-31T08:50:55;10.45;;;1.95;;
60492;SDS011;46341;51.290;-2.474;2022-10-31T08:53:22;12.70;;;2.35;;
60492;SDS011;46341;51.290;-2.474;2022-10-31T08:55:48;13.82;;;2.05;;
60492;SDS011;46341;51.290;-2.474;2022-10-31T08:58:16;14.38;;;2.28;;
60492;SDS011;46341;51.290;-2.474;2022-10-31T09:00:43;15.00;;;2.50;;
60492;SDS011;46341;51.290;-2.474;2022-10-31T09:03:11;13.40;;;2.33;;
60492;SDS011;46341;51.290;-2.474;2022-10-31T09:08:04;11.02;;;2.40;;
60492;SDS011;46341;51.290;-2.474;2022-10-31T09:10:31;13.63;;;2.22;;
60492;SDS011;46341;51.290;-2.474;2022-10-31T09:12:58;10.63;;;2.08;;
60492;SDS011;46341;51.290;-2.474;2022-10-31T09:15:25;11.32;;;1.75;;
60492;SDS011;46341;51.290;-2.474;2022-10-31T09:17:52;8.80;;;1.83;;
60492;SDS011;46341;51.290;-2.474;2022-10-31T09:20:18;9.40;;;2.17;;
60492;SDS011;46341;51.290;-2.474;2022-10-31T09:22:45;12.20;;;1.95;;
60492;SDS011;46341;51.290;-2.474;2022-10-31T09:25:11;13.82;;;2.35;;
60492;SDS011;46341;51.290;-2.474;2022-10-31T09:27:38;14.82;;;1.73;;
60492;SDS011;46341;51.290;-2.474;2022-10-31T09:30:04;11.35;;;1.80;;
60492;SDS011;46341;51.290;-2.474;2022-10-31T09:32:31;13.02;;;2.42;;
60492;SDS011;46341;51.290;-2.474;2022-10-31T09:34:57;11.68;;;1.48;;
60492;SDS011;46341;51.290;-2.474;2022-10-31T09:37:23;11.75;;;1.75;;
60492;SDS011;46341;51.290;-2.474;2022-10-31T09:39:50;9.13;;;1.77;;
60492;SDS011;46341;51.290;-2.474;2022-10-31T09:45:05;13.13;;;2.30;;
60492;SDS011;46341;51.290;-2.474;2022-10-31T09:47:40;11.02;;;1.90;;
60492;SDS011;46341;51.290;-2.474;2022-10-31T09:50:15;11.38;;;2.17;;
60492;SDS011;46341;51.290;-2.474;2022-10-31T09:52:47;10.57;;;1.70;;
60492;SDS011;46341;51.290;-2.474;2022-10-31T09:55:20;8.85;;;1.80;;
60492;SDS011;46341;51.290;-2.474;2022-10-31T09:57:52;14.30;;;1.83;;
60492;SDS011;46341;51.290;-2.474;2022-10-31T10:00:20;10.82;;;1.67;;
60492;SDS011;46341;51.290;-2.474;2022-10-31T10:05:37;9.57;;;1.80;;
60492;SDS011;46341;51.290;-2.474;2022-10-31T10:08:16;9.23;;;1.67;;
60492;SDS011;46341;51.290;-2.474;2022-10-31T10:13:35;11.25;;;1.80;;
60492;SDS011;46341;51.290;-2.474;2022-10-31T10:19:00;11.57;;;1.88;;
60492;SDS011;46341;51.290;-2.474;2022-10-31T10:26:22;7.88;;;1.50;;
60492;SDS011;46341;51.290;-2.474;2022-10-31T10:29:01;5.82;;;1.50;;
60492;SDS011;46341;51.290;-2.474;2022-10-31T10:31:29;8.18;;;1.52;;
60492;SDS011;46341;51.290;-2.474;2022-10-31T10:34:19;8.20;;;1.55;;
60492;SDS011;46341;51.290;-2.474;2022-10-31T10:36:48;10.30;;;1.70;;
60492;SDS011;46341;51.290;-2.474;2022-10-31T10:39:18;7.68;;;1.40;;
60492;SDS011;46341;51.290;-2.474;2022-10-31T10:41:47;5.45;;;1.35;;
60492;SDS011;46341;51.290;-2.474;2022-10-31T10:44:37;7.20;;;1.58;;
60492;SDS011;46341;51.290;-2.474;2022-10-31T10:47:25;10.80;;;1.70;;
60492;SDS011;46341;51.290;-2.474;2022-10-31T10:50:18;7.18;;;1.55;;
60492;SDS011;46341;51.290;-2.474;2022-10-31T10:52:48;8.40;;;2.17;;
60492;SDS011;46341;51.290;-2.474;2022-10-31T11:00:23;6.70;;;1.42;;
60492;SDS011;46341;51.290;-2.474;2022-10-31T11:02:50;8.27;;;1.85;;
60492;SDS011;46341;51.290;-2.474;2022-10-31T11:08:22;9.32;;;1.67;;
60492;SDS011;46341;51.290;-2.474;2022-10-31T11:11:02;7.72;;;1.42;;
60492;SDS011;46341;51.290;-2.474;2022-10-31T11:13:30;7.00;;;1.48;;
60492;SDS011;46341;51.290;-2.474;2022-10-31T11:16:00;7.22;;;1.05;;
60492;SDS011;46341;51.290;-2.474;2022-10-31T11:18:29;4.97;;;0.80;;
60492;SDS011;46341;51.290;-2.474;2022-10-31T11:20:57;4.63;;;1.30;;
60492;SDS011;46341;51.290;-2.474;2022-10-31T11:23:25;5.43;;;0.85;;
60492;SDS011;46341;51.290;-2.474;2022-10-31T11:28:21;4.43;;;1.10;;
60492;SDS011;46341;51.290;-2.474;2022-10-31T11:30:55;7.57;;;1.40;;
60492;SDS011;46341;51.290;-2.474;2022-10-31T11:35:49;3.97;;;1.00;;
60492;SDS011;46341;51.290;-2.474;2022-10-31T11:38:23;4.57;;;1.00;;
60492;SDS011;46341;51.290;-2.474;2022-10-31T11:43:44;5.00;;;1.00;;
60492;SDS011;46341;51.290;-2.474;2022-10-31T11:46:13;6.10;;;0.98;;
60492;SDS011;46341;51.290;-2.474;2022-10-31T11:48:45;7.25;;;1.00;;
60492;SDS011;46341;51.290;-2.474;2022-10-31T11:51:12;7.20;;;1.33;;
60492;SDS011;46341;51.290;-2.474;2022-10-31T11:53:47;4.40;;;0.90;;
60492;SDS011;46341;51.290;-2.474;2022-10-31T11:56:16;3.90;;;1.00;;
60492;SDS011;46341;51.290;-2.474;2022-10-31T11:58:42;3.70;;;1.08;;
60492;SDS011;46341;51.290;-2.474;2022-10-31T12:01:25;6.43;;;1.20;;
60492;SDS011;46341;51.290;-2.474;2022-10-31T12:04:08;4.60;;;0.80;;
60492;SDS011;46341;51.290;-2.474;2022-10-31T12:06:38;4.25;;;0.68;;
60492;SDS011;46341;51.290;-2.474;2022-10-31T12:14:46;4.28;;;1.13;;
60492;SDS011;46341;51.290;-2.474;2022-10-31T12:17:19;4.72;;;1.10;;
60492;SDS011;46341;51.290;-2.474;2022-10-31T12:19:55;3.70;;;0.85;;
60492;SDS011;46341;51.290;-2.474;2022-10-31T12:35:13;3.47;;;0.65;;
60492;SDS011;46341;51.290;-2.474;2022-10-31T12:37:53;2.72;;;0.70;;
60492;SDS011;46341;51.290;-2.474;2022-10-31T12:45:43;4.32;;;0.90;;
60492;SDS011;46341;51.290;-2.474;2022-10-31T12:58:35;2.20;;;0.57;;
60492;SDS011;46341;51.290;-2.474;2022-10-31T13:01:12;2.88;;;0.70;;
60492;SDS011;46341;51.290;-2.474;2022-10-31T13:06:07;4.37;;;0.77;;
60492;SDS011;46341;51.290;-2.474;2022-10-31T13:08:38;2.45;;;0.60;;
60492;SDS011;46341;51.290;-2.474;2022-10-31T13:11:10;5.57;;;1.10;;
60492;SDS011;46341;51.290;-2.474;2022-10-31T13:16:30;3.78;;;0.82;;
60492;SDS011;46341;51.290;-2.474;2022-10-31T13:21:43;4.45;;;1.13;;
60492;SDS011;46341;51.290;-2.474;2022-10-31T13:24:14;4.43;;;0.80;;
60492;SDS011;46341;51.290;-2.474;2022-10-31T13:26:47;3.70;;;0.80;;
60492;SDS011;46341;51.290;-2.474;2022-10-31T13:31:44;2.53;;;0.60;;
60492;SDS011;46341;51.290;-2.474;2022-10-31T13:34:22;4.07;;;0.87;;
60492;SDS011;46341;51.290;-2.474;2022-10-31T13:39:20;2.28;;;0.90;;
60492;SDS011;46341;51.290;-2.474;2022-10-31T13:41:53;4.00;;;0.77;;
60492;SDS011;46341;51.290;-2.474;2022-10-31T13:44:24;7.53;;;1.08;;
60492;SDS011;46341;51.290;-2.474;2022-10-31T13:46:52;2.08;;;0.50;;
60492;SDS011;46341;51.290;-2.474;2022-10-31T13:51:45;3.75;;;0.80;;
60492;SDS011;46341;51.290;-2.474;2022-10-31T13:59:45;4.38;;;1.02;;
60492;SDS011;46341;51.290;-2.474;2022-10-31T14:02:13;4.78;;;0.70;;
60492;SDS011;46341;51.290;-2.474;2022-10-31T14:09:41;4.55;;;0.90;;
60492;SDS011;46341;51.290;-2.474;2022-10-31T14:14:52;7.40;;;1.27;;
60492;SDS011;46341;51.290;-2.474;2022-10-31T14:17:25;4.03;;;1.25;;
60492;SDS011;46341;51.290;-2.474;2022-10-31T14:19:59;5.10;;;0.82;;
60492;SDS011;46341;51.290;-2.474;2022-10-31T14:22:39;2.22;;;0.88;;
60492;SDS011;46341;51.290;-2.474;2022-10-31T14:30:56;5.15;;;1.08;;
60492;SDS011;46341;51.290;-2.474;2022-10-31T14:33:23;3.28;;;0.80;;
60492;SDS011;46341;51.290;-2.474;2022-10-31T14:38:57;5.18;;;1.08;;
60492;SDS011;46341;51.290;-2.474;2022-10-31T14:46:46;4.47;;;1.30;;
60492;SDS011;46341;51.290;-2.474;2022-10-31T14:49:19;5.15;;;1.00;;
60492;SDS011;46341;51.290;-2.474;2022-10-31T14:51:48;6.80;;;1.30;;
60492;SDS011;46341;51.290;-2.474;2022-10-31T14:54:19;3.63;;;1.10;;
60492;SDS011;46341;51.290;-2.474;2022-10-31T14:56:50;3.78;;;1.00;;
60492;SDS011;46341;51.290;-2.474;2022-10-31T14:59:19;6.47;;;1.10;;
60492;SDS011;46341;51.290;-2.474;2022-10-31T15:01:54;4.13;;;1.10;;
60492;SDS011;46341;51.290;-2.474;2022-10-31T15:04:23;3.33;;;0.90;;
60492;SDS011;46341;51.290;-2.474;2022-10-31T15:06:52;3.40;;;1.10;;
60492;SDS011;46341;51.290;-2.474;2022-10-31T15:09:24;4.38;;;1.10;;
60492;SDS011;46341;51.290;-2.474;2022-10-31T15:11:50;3.75;;;1.75;;
60492;SDS011;46341;51.290;-2.474;2022-10-31T15:14:27;7.40;;;1.83;;
60492;SDS011;46341;51.290;-2.474;2022-10-31T15:16:53;3.92;;;1.00;;
60492;SDS011;46341;51.290;-2.474;2022-10-31T15:19:23;3.95;;;1.17;;
60492;SDS011;46341;51.290;-2.474;2022-10-31T15:21:50;2.90;;;1.00;;
60492;SDS011;46341;51.290;-2.474;2022-10-31T15:24:17;6.75;;;1.55;;
60492;SDS011;46341;51.290;-2.474;2022-10-31T15:26:45;3.13;;;1.00;;
60492;SDS011;46341;51.290;-2.474;2022-10-31T15:29:18;5.95;;;1.30;;
60492;SDS011;46341;51.290;-2.474;2022-10-31T15:34:42;5.55;;;1.80;;
60492;SDS011;46341;51.290;-2.474;2022-10-31T15:37:10;5.43;;;1.57;;
60492;SDS011;46341;51.290;-2.474;2022-10-31T15:39:37;6.20;;;1.92;;
60492;SDS011;46341;51.290;-2.474;2022-10-31T15:42:04;3.10;;;1.40;;
60492;SDS011;46341;51.290;-2.474;2022-10-31T15:44:31;5.03;;;1.52;;
60492;SDS011;46341;51.290;-2.474;2022-10-31T15:46:59;5.82;;;2.08;;
60492;SDS011;46341;51.290;-2.474;2022-10-31T15:49:36;5.95;;;1.90;;
60492;SDS011;46341;51.290;-2.474;2022-10-31T15:52:19;4.47;;;2.03;;
60492;SDS011;46341;51.290;-2.474;2022-10-31T15:54:51;5.18;;;2.35;;
60492;SDS011;46341;51.290;-2.474;2022-10-31T15:57:19;7.30;;;2.47;;
60492;SDS011;46341;51.290;-2.474;2022-10-31T15:59:46;5.00;;;1.80;;
60492;SDS011;46341;51.290;-2.474;2022-10-31T16:04:49;7.70;;;2.00;;
60492;SDS011;46341;51.290;-2.474;2022-10-31T16:07:17;5.87;;;2.00;;
60492;SDS011;46341;51.290;-2.474;2022-10-31T16:09:53;5.72;;;2.15;;
60492;SDS011;46341;51.290;-2.474;2022-10-31T16:12:20;5.78;;;2.03;;
60492;SDS011;46341;51.290;-2.474;2022-10-31T16:14:48;5.95;;;2.30;;
60492;SDS011;46341;51.290;-2.474;2022-10-31T16:17:15;7.27;;;2.07;;
60492;SDS011;46341;51.290;-2.474;2022-10-31T16:19:47;8.15;;;2.28;;
60492;SDS011;46341;51.290;-2.474;2022-10-31T16:22:19;5.40;;;2.75;;
60492;SDS011;46341;51.290;-2.474;2022-10-31T16:24:46;4.78;;;2.50;;
60492;SDS011;46341;51.290;-2.474;2022-10-31T16:27:21;6.00;;;2.58;;
60492;SDS011;46341;51.290;-2.474;2022-10-31T16:29:58;5.40;;;3.08;;
60492;SDS011;46341;51.290;-2.474;2022-10-31T16:37:26;9.52;;;3.20;;
60492;SDS011;46341;51.290;-2.474;2022-10-31T16:39:52;7.60;;;2.90;;
60492;SDS011;46341;51.290;-2.474;2022-10-31T16:42:19;8.10;;;2.95;;
60492;SDS011;46341;51.290;-2.474;2022-10-31T16:44:46;5.53;;;2.60;;
60492;SDS011;46341;51.290;-2.474;2022-10-31T16:47:13;5.57;;;3.20;;
60492;SDS011;46341;51.290;-2.474;2022-10-31T16:49:40;5.07;;;2.88;;
60492;SDS011;46341;51.290;-2.474;2022-10-31T16:52:07;8.18;;;2.92;;
60492;SDS011;46341;51.290;-2.474;2022-10-31T16:54:33;7.20;;;2.88;;
60492;SDS011;46341;51.290;-2.474;2022-10-31T16:57:00;9.38;;;3.00;;
60492;SDS011;46341;51.290;-2.474;2022-10-31T16:59:27;7.43;;;3.87;;
60492;SDS011;46341;51.290;-2.474;2022-10-31T17:01:53;5.78;;;3.55;;